createdAt,value
2018-07-20T00:00:53.443Z,6.20
2018-07-20T00:03:21.949Z,5.60
2018-07-20T00:05:50.406Z,5.60
2018-07-20T00:08:18.984Z,6.30
2018-07-20T00:10:47.437Z,5.43
2018-07-20T00:13:15.999Z,5.40
2018-07-20T00:15:44.560Z,5.90
2018-07-20T00:18:13.159Z,5.90
2018-07-20T00:20:41.737Z,5.63
2018-07-20T00:23:10.269Z,6.17
2018-07-20T00:25:38.758Z,6.50
2018-07-20T00:28:07.280Z,6.03
2018-07-20T00:30:35.797Z,5.97
2018-07-20T00:33:04.307Z,6.13
2018-07-20T00:35:32.734Z,6.33
2018-07-20T00:38:01.294Z,5.77
2018-07-20T00:40:29.798Z,6.30
2018-07-20T00:42:58.334Z,6.20
2018-07-20T00:45:26.829Z,6.27
2018-07-20T00:47:55.314Z,6.00
2018-07-20T00:50:23.840Z,6.37
2018-07-20T00:52:52.356Z,6.30
2018-07-20T00:55:20.807Z,6.17
2018-07-20T00:57:49.333Z,6.60
2018-07-20T01:00:17.837Z,6.33
2018-07-20T01:02:46.393Z,6.33
2018-07-20T01:05:14.856Z,6.17
2018-07-20T01:07:43.388Z,6.60
2018-07-20T01:10:11.904Z,6.03
2018-07-20T01:12:40.479Z,6.77
2018-07-20T01:15:08.964Z,6.97
2018-07-20T01:17:37.573Z,7.47
2018-07-20T01:20:06.871Z,7.00
2018-07-20T01:22:35.359Z,6.27
2018-07-20T01:25:03.908Z,7.03
2018-07-20T01:27:32.446Z,7.10
2018-07-20T01:30:00.952Z,7.00
2018-07-20T01:32:29.423Z,7.87
2018-07-20T01:34:57.932Z,7.27
2018-07-20T01:37:26.376Z,6.70
2018-07-20T01:39:54.875Z,7.27
2018-07-20T01:42:23.448Z,7.10
2018-07-20T01:44:51.947Z,6.53
2018-07-20T01:47:20.420Z,8.10
2018-07-20T01:49:48.972Z,7.23
2018-07-20T01:52:17.510Z,7.33
2018-07-20T01:54:46.004Z,7.60
2018-07-20T01:57:14.545Z,7.33
2018-07-20T01:59:43.091Z,7.20
2018-07-20T02:02:11.632Z,7.70
2018-07-20T02:04:40.236Z,7.33
2018-07-20T02:07:08.819Z,7.67
2018-07-20T02:09:37.361Z,7.30
2018-07-20T02:12:12.251Z,7.00
2018-07-20T02:14:40.863Z,7.20
2018-07-20T02:17:09.517Z,7.13
2018-07-20T02:19:38.020Z,7.33
2018-07-20T02:22:06.927Z,7.47
2018-07-20T02:24:35.528Z,7.43
2018-07-20T02:27:04.101Z,7.20
2018-07-20T02:29:32.815Z,7.23
2018-07-20T02:32:01.313Z,8.03
2018-07-20T02:34:29.920Z,7.67
2018-07-20T02:36:58.453Z,8.07
2018-07-20T02:39:27.086Z,7.67
2018-07-20T02:41:55.665Z,8.47
2018-07-20T02:44:24.238Z,8.60
2018-07-20T02:46:52.723Z,7.93
2018-07-20T02:49:21.272Z,8.03
2018-07-20T02:51:49.775Z,8.40
2018-07-20T02:54:18.331Z,7.93
2018-07-20T02:56:46.867Z,7.40
2018-07-20T02:59:15.449Z,8.00
2018-07-20T03:01:43.971Z,7.73
2018-07-20T03:04:12.721Z,7.87
2018-07-20T03:06:41.251Z,7.70
2018-07-20T03:09:11.850Z,7.73
2018-07-20T03:11:40.411Z,7.97
2018-07-20T03:14:09.011Z,8.00
2018-07-20T03:16:37.610Z,7.57
2018-07-20T03:19:06.403Z,8.47
2018-07-20T03:21:35.034Z,8.03
2018-07-20T03:24:03.640Z,8.43
2018-07-20T03:26:32.136Z,7.60
2018-07-20T03:29:00.657Z,9.40
2018-07-20T03:31:29.159Z,8.57
2018-07-20T03:33:57.666Z,8.20
2018-07-20T03:36:26.181Z,8.17
2018-07-20T03:38:54.780Z,7.97
2018-07-20T03:41:23.384Z,8.20
2018-07-20T03:43:51.977Z,8.13
2018-07-20T03:46:20.558Z,8.30
2018-07-20T03:48:49.082Z,8.57
2018-07-20T03:51:17.666Z,8.13
2018-07-20T03:53:46.170Z,8.03
2018-07-20T03:56:14.769Z,8.53
2018-07-20T03:58:43.386Z,7.70
2018-07-20T04:01:12.087Z,9.10
2018-07-20T04:03:40.809Z,8.37
2018-07-20T04:06:09.344Z,8.40
2018-07-20T04:08:37.885Z,8.33
2018-07-20T04:11:06.429Z,8.77
2018-07-20T04:13:34.919Z,8.37
2018-07-20T04:16:03.542Z,7.87
2018-07-20T04:18:32.073Z,8.33
2018-07-20T04:21:00.635Z,7.97
2018-07-20T04:23:29.524Z,7.33
2018-07-20T04:25:58.968Z,7.50
2018-07-20T04:28:27.453Z,7.80
2018-07-20T04:30:56.020Z,7.27
2018-07-20T04:33:24.531Z,8.03
2018-07-20T04:35:53.152Z,7.47
2018-07-20T04:38:21.868Z,7.80
2018-07-20T04:40:50.356Z,7.40
2018-07-20T04:43:18.944Z,8.37
2018-07-20T04:45:47.618Z,7.80
2018-07-20T04:48:16.164Z,7.40
2018-07-20T04:50:44.809Z,7.10
2018-07-20T04:53:13.351Z,8.07
2018-07-20T04:55:41.916Z,7.27
2018-07-20T04:58:10.489Z,7.57
2018-07-20T05:00:39.039Z,7.37
2018-07-20T05:03:08.089Z,7.63
2018-07-20T05:05:36.746Z,6.87
2018-07-20T05:08:05.254Z,7.63
2018-07-20T05:10:33.835Z,7.67
2018-07-20T05:13:02.823Z,8.03
2018-07-20T05:15:31.345Z,7.87
2018-07-20T05:17:59.928Z,7.63
2018-07-20T05:20:28.492Z,7.33
2018-07-20T05:22:57.048Z,7.73
2018-07-20T05:25:25.702Z,7.73
2018-07-20T05:27:54.273Z,8.33
2018-07-20T05:30:22.822Z,7.67
2018-07-20T05:32:51.349Z,7.87
2018-07-20T05:35:19.848Z,7.20
2018-07-20T05:37:48.417Z,7.50
2018-07-20T05:40:16.966Z,7.93
2018-07-20T05:42:45.522Z,7.43
2018-07-20T05:45:14.018Z,7.43
2018-07-20T05:47:42.530Z,7.57
2018-07-20T05:50:11.068Z,7.60
2018-07-20T05:52:39.652Z,7.13
2018-07-20T05:55:08.285Z,8.17
2018-07-20T05:57:36.807Z,8.80
2018-07-20T06:00:05.962Z,8.37
2018-07-20T06:02:40.581Z,7.97
2018-07-20T06:05:09.123Z,7.80
2018-07-20T06:07:37.619Z,8.20
2018-07-20T06:10:06.094Z,7.60
2018-07-20T06:12:34.685Z,8.17
2018-07-20T06:15:03.226Z,7.97
2018-07-20T06:17:31.818Z,7.90
2018-07-20T06:20:00.326Z,8.43
2018-07-20T06:22:29.029Z,8.37
2018-07-20T06:24:57.820Z,7.87
2018-07-20T06:27:26.672Z,8.00
2018-07-20T06:29:55.236Z,8.27
2018-07-20T06:32:23.751Z,8.60
2018-07-20T06:34:52.473Z,8.60
2018-07-20T06:37:21.150Z,8.10
2018-07-20T06:39:49.800Z,8.10
2018-07-20T06:42:18.426Z,7.97
2018-07-20T06:44:46.995Z,9.13
2018-07-20T06:47:15.682Z,9.07
2018-07-20T06:49:44.376Z,9.70
2018-07-20T06:52:13.059Z,9.30
2018-07-20T06:54:42.406Z,9.40
2018-07-20T06:57:11.381Z,9.37
2018-07-20T06:59:40.016Z,8.97
2018-07-20T07:02:08.594Z,10.43
2018-07-20T07:04:37.678Z,9.63
2018-07-20T07:07:07.119Z,10.53
2018-07-20T07:09:35.676Z,9.07
2018-07-20T07:12:04.340Z,7.83
2018-07-20T07:14:33.010Z,7.50
2018-07-20T07:17:01.633Z,7.73
2018-07-20T07:19:30.316Z,7.33
2018-07-20T07:21:59.193Z,7.17
2018-07-20T07:24:27.855Z,7.07
2018-07-20T07:26:56.440Z,7.15
2018-07-20T07:29:25.004Z,6.58
2018-07-20T07:31:53.528Z,6.28
2018-07-20T07:34:22.159Z,5.95
2018-07-20T07:36:50.815Z,6.08
2018-07-20T07:39:19.785Z,5.95
2018-07-20T07:41:48.481Z,6.08
2018-07-20T07:44:17.045Z,5.60
2018-07-20T07:46:45.797Z,6.30
2018-07-20T07:49:14.642Z,5.60
2018-07-20T07:51:43.474Z,5.85
2018-07-20T07:54:12.089Z,6.62
2018-07-20T07:56:40.694Z,5.55
2018-07-20T07:59:09.327Z,5.40
2018-07-20T08:01:38.052Z,5.00
2018-07-20T08:04:07.592Z,5.03
2018-07-20T08:06:36.193Z,5.42
2018-07-20T08:09:08.713Z,5.17
2018-07-20T08:11:37.760Z,5.40
2018-07-20T08:14:06.344Z,4.78
2018-07-20T08:16:34.947Z,4.90
2018-07-20T08:19:03.547Z,4.83
2018-07-20T08:21:32.177Z,5.10
2018-07-20T08:24:00.736Z,4.95
2018-07-20T08:26:29.306Z,4.83
2018-07-20T08:28:57.842Z,5.15
2018-07-20T08:31:26.475Z,5.40
2018-07-20T08:33:55.060Z,5.50
2018-07-20T08:36:23.707Z,5.78
2018-07-20T08:38:52.318Z,5.75
2018-07-20T08:41:21.192Z,5.30
2018-07-20T08:43:49.843Z,6.45
2018-07-20T08:46:18.659Z,4.92
2018-07-20T08:48:47.283Z,5.75
2018-07-20T08:51:15.873Z,5.90
2018-07-20T08:53:44.516Z,5.58
2018-07-20T08:56:13.026Z,5.55
2018-07-20T08:58:41.635Z,5.37
2018-07-20T09:01:10.675Z,5.28
2018-07-20T09:03:39.303Z,5.42
2018-07-20T09:06:07.937Z,5.65
2018-07-20T09:08:36.511Z,5.55
2018-07-20T09:11:05.163Z,6.65
2018-07-20T09:13:33.664Z,5.65
2018-07-20T09:16:02.176Z,5.58
2018-07-20T09:18:30.721Z,6.17
2018-07-20T09:20:59.284Z,6.53
2018-07-20T09:23:27.830Z,6.85
2018-07-20T09:25:56.633Z,6.08
2018-07-20T09:28:25.245Z,5.92
2018-07-20T09:30:53.670Z,6.35
2018-07-20T09:33:22.195Z,6.35
2018-07-20T09:35:50.940Z,5.80
2018-07-20T09:38:19.470Z,6.00
2018-07-20T09:40:48.054Z,6.10
2018-07-20T09:43:16.614Z,6.15
2018-07-20T09:45:45.321Z,5.35
2018-07-20T09:48:13.912Z,6.08
2018-07-20T09:50:42.526Z,5.87
2018-07-20T09:53:11.198Z,6.15
2018-07-20T09:55:39.750Z,5.92
2018-07-20T09:58:08.356Z,5.20
2018-07-20T10:00:42.856Z,6.47
2018-07-20T10:03:11.625Z,6.40
2018-07-20T10:05:40.247Z,5.90
2018-07-20T10:08:08.990Z,6.20
2018-07-20T10:10:37.596Z,5.97
2018-07-20T10:13:06.205Z,5.87
2018-07-20T10:15:34.706Z,5.70
2018-07-20T10:18:03.257Z,5.85
2018-07-20T10:20:31.717Z,6.45
2018-07-20T10:23:00.427Z,6.40
2018-07-20T10:25:29.024Z,6.22
2018-07-20T10:27:57.621Z,6.33
2018-07-20T10:30:26.243Z,7.20
2018-07-20T10:32:54.877Z,6.15
2018-07-20T10:35:23.487Z,5.70
2018-07-20T10:37:52.100Z,5.97
2018-07-20T10:40:22.188Z,5.65
2018-07-20T10:42:50.825Z,6.80
2018-07-20T10:45:19.439Z,6.50
2018-07-20T10:47:48.309Z,6.70
2018-07-20T10:50:16.876Z,8.10
2018-07-20T10:52:45.395Z,5.10
2018-07-20T10:55:14.094Z,5.10
2018-07-20T10:57:42.668Z,5.35
2018-07-20T11:00:11.219Z,6.00
2018-07-20T11:02:39.726Z,6.30
2018-07-20T11:05:08.296Z,5.20
2018-07-20T11:07:36.782Z,5.60
2018-07-20T11:10:05.645Z,5.17
2018-07-20T11:12:34.131Z,5.58
2018-07-20T11:15:02.612Z,5.42
2018-07-20T11:17:31.047Z,4.97
2018-07-20T11:19:59.816Z,5.90
2018-07-20T11:22:28.322Z,5.87
2018-07-20T11:24:56.873Z,5.87
2018-07-20T11:27:25.426Z,6.08
2018-07-20T11:29:54.091Z,5.28
2018-07-20T11:32:22.642Z,5.37
2018-07-20T11:34:51.226Z,5.85
2018-07-20T11:37:19.748Z,5.37
2018-07-20T11:39:48.280Z,5.17
2018-07-20T11:42:16.784Z,5.28
2018-07-20T11:44:45.337Z,6.30
2018-07-20T11:47:13.888Z,5.80
2018-07-20T11:49:42.455Z,5.97
2018-07-20T11:52:11.380Z,6.62
2018-07-20T11:54:39.964Z,6.22
2018-07-20T11:57:08.526Z,6.10
2018-07-20T11:59:37.207Z,6.30
2018-07-20T12:02:05.714Z,6.33
2018-07-20T12:04:34.248Z,6.28
2018-07-20T12:07:02.877Z,5.78
2018-07-20T12:09:31.474Z,6.12
2018-07-20T12:12:00.286Z,6.12
2018-07-20T12:14:28.836Z,6.22
2018-07-20T12:16:57.407Z,6.42
2018-07-20T12:19:25.983Z,5.92
2018-07-20T12:21:54.626Z,5.90
2018-07-20T12:24:23.188Z,6.28
2018-07-20T12:26:51.712Z,7.00
2018-07-20T12:29:20.933Z,6.87
2018-07-20T12:31:49.564Z,8.60
2018-07-20T12:34:18.225Z,6.92
2018-07-20T12:36:46.786Z,8.13
2018-07-20T12:39:15.361Z,7.00
2018-07-20T12:41:43.877Z,7.70
2018-07-20T12:44:12.410Z,7.28
2018-07-20T12:46:40.971Z,7.80
2018-07-20T12:49:09.773Z,7.10
2018-07-20T12:51:38.543Z,7.47
2018-07-20T12:54:07.164Z,7.10
2018-07-20T12:56:35.762Z,8.18
2018-07-20T12:59:04.342Z,7.72
2018-07-20T13:01:33.294Z,8.48
2018-07-20T13:04:04.858Z,7.42
2018-07-20T13:06:33.681Z,7.75
2018-07-20T13:09:02.347Z,8.10
2018-07-20T13:11:30.957Z,7.33
2018-07-20T13:13:59.714Z,7.10
2018-07-20T13:16:28.308Z,7.75
2018-07-20T13:18:56.828Z,7.70
2018-07-20T13:21:25.455Z,7.70
2018-07-20T13:23:54.189Z,10.70
2018-07-20T13:26:22.863Z,7.72
2018-07-20T13:28:51.364Z,7.65
2018-07-20T13:31:20.194Z,7.72
2018-07-20T13:33:49.224Z,6.95
2018-07-20T13:36:17.759Z,7.53
2018-07-20T13:38:47.281Z,7.45
2018-07-20T13:41:15.854Z,7.40
2018-07-20T13:43:44.330Z,8.23
2018-07-20T13:46:12.944Z,7.60
2018-07-20T13:48:41.483Z,7.92
2018-07-20T13:51:10.139Z,11.90
2018-07-20T13:53:38.824Z,8.08
2018-07-20T13:56:07.369Z,7.35
2018-07-20T13:58:35.896Z,8.08
2018-07-20T14:01:04.451Z,8.28
2018-07-20T14:03:32.916Z,9.38
2018-07-20T14:06:01.527Z,8.98
2018-07-20T14:08:30.068Z,8.30
2018-07-20T14:10:58.577Z,8.33
2018-07-20T14:13:27.023Z,8.28
2018-07-20T14:15:55.674Z,7.78
2018-07-20T14:18:24.249Z,8.35
2018-07-20T14:20:52.835Z,7.53
2018-07-20T14:23:21.443Z,8.30
2018-07-20T14:25:50.029Z,8.25
2018-07-20T14:28:18.563Z,8.40
2018-07-20T14:30:47.189Z,8.48
2018-07-20T14:33:15.782Z,9.13
2018-07-20T14:35:44.638Z,9.95
2018-07-20T14:38:13.412Z,8.65
2018-07-20T14:40:42.023Z,8.45
2018-07-20T14:43:10.950Z,8.38
2018-07-20T14:45:40.319Z,8.95
2018-07-20T14:48:08.896Z,8.50
2018-07-20T14:50:37.469Z,8.50
2018-07-20T14:53:06.042Z,9.28
2018-07-20T14:55:34.691Z,8.63
2018-07-20T14:58:03.326Z,9.20
2018-07-20T15:00:32.164Z,8.40
2018-07-20T15:03:00.797Z,8.78
2018-07-20T15:05:29.586Z,8.48
2018-07-20T15:07:58.186Z,9.30
2018-07-20T15:10:26.805Z,8.50
2018-07-20T15:12:55.354Z,8.90
2018-07-20T15:15:23.876Z,9.53
2018-07-20T15:17:52.558Z,8.20
2018-07-20T15:20:21.146Z,8.70
2018-07-20T15:22:49.731Z,8.65
2018-07-20T15:25:18.272Z,9.00
2018-07-20T15:27:46.744Z,8.28
2018-07-20T15:30:15.290Z,7.58
2018-07-20T15:32:43.862Z,7.80
2018-07-20T15:35:12.397Z,8.38
2018-07-20T15:37:41.018Z,7.05
2018-07-20T15:40:09.599Z,8.10
2018-07-20T15:42:38.075Z,8.35
2018-07-20T15:45:06.834Z,8.65
2018-07-20T15:47:35.532Z,8.28
2018-07-20T15:50:04.166Z,8.53
2018-07-20T15:55:01.304Z,7.42
2018-07-20T15:57:30.156Z,7.53
2018-07-20T15:59:58.971Z,6.63
2018-07-20T16:02:27.389Z,6.43
2018-07-20T16:04:56.118Z,6.90
2018-07-20T16:07:24.641Z,6.30
2018-07-20T16:09:53.169Z,6.77
2018-07-20T16:12:21.803Z,6.90
2018-07-20T16:14:50.377Z,7.50
2018-07-20T16:17:19.037Z,7.70
2018-07-20T16:19:47.692Z,8.17
2018-07-20T16:22:16.206Z,8.60
2018-07-20T16:24:44.802Z,8.33
2018-07-20T16:27:13.341Z,7.90
2018-07-20T16:29:41.851Z,7.83
2018-07-20T16:32:10.476Z,8.00
2018-07-20T16:34:40.128Z,7.70
2018-07-20T16:37:08.922Z,7.20
2018-07-20T16:39:39.800Z,7.50
2018-07-20T16:42:09.265Z,7.93
2018-07-20T16:44:38.190Z,7.93
2018-07-20T16:47:07.178Z,8.33
2018-07-20T16:49:35.871Z,9.93
2018-07-20T16:52:04.777Z,7.27
2018-07-20T16:54:33.305Z,8.90
2018-07-20T16:57:01.857Z,7.67
2018-07-20T16:59:30.427Z,8.63
2018-07-20T17:01:59.002Z,7.37
2018-07-20T17:04:27.591Z,6.87
2018-07-20T17:06:56.375Z,6.33
2018-07-20T17:09:25.002Z,7.13
2018-07-20T17:11:53.675Z,6.87
2018-07-20T17:14:22.291Z,6.87
2018-07-20T17:16:51.156Z,7.33
2018-07-20T17:19:19.708Z,6.90
2018-07-20T17:21:48.453Z,7.00
2018-07-20T17:24:17.024Z,6.63
2018-07-20T17:26:45.593Z,7.50
2018-07-20T17:29:14.192Z,7.43
2018-07-20T17:31:43.491Z,7.47
2018-07-20T17:34:12.036Z,7.70
2018-07-20T17:36:40.982Z,6.73
2018-07-20T17:39:11.041Z,6.30
2018-07-20T17:41:41.759Z,7.23
2018-07-20T17:44:10.950Z,12.80
2018-07-20T17:46:39.492Z,12.83
2018-07-20T17:49:09.355Z,12.90
2018-07-20T17:51:38.173Z,12.63
2018-07-20T17:54:06.797Z,6.63
2018-07-20T17:56:35.815Z,6.30
2018-07-20T17:59:04.608Z,6.90
2018-07-20T18:01:33.256Z,6.57
2018-07-20T18:04:02.165Z,6.93
2018-07-20T18:06:31.040Z,6.30
2018-07-20T18:08:59.641Z,6.30
2018-07-20T18:11:28.640Z,6.40
2018-07-20T18:13:57.264Z,6.10
2018-07-20T18:16:25.787Z,7.77
2018-07-20T18:18:54.361Z,6.53
2018-07-20T18:21:22.993Z,6.93
2018-07-20T18:23:51.562Z,7.63
2018-07-20T18:26:20.072Z,7.40
2018-07-20T18:28:48.516Z,7.47
2018-07-20T18:31:17.151Z,6.80
2018-07-20T18:33:46.145Z,6.57
2018-07-20T18:36:14.991Z,6.17
2018-07-20T18:38:43.996Z,7.17
2018-07-20T18:41:12.685Z,6.87
2018-07-20T18:43:41.431Z,7.07
2018-07-20T18:46:10.085Z,6.40
2018-07-20T18:48:38.771Z,7.07
2018-07-20T18:51:08.417Z,6.80
2018-07-20T18:53:37.176Z,6.50
2018-07-20T18:56:05.826Z,8.70
2018-07-20T18:58:34.467Z,8.37
2018-07-20T19:01:03.329Z,7.97
2018-07-20T19:03:32.008Z,8.23
2018-07-20T19:06:00.705Z,7.63
2018-07-20T19:08:29.603Z,8.13
2018-07-20T19:10:58.372Z,7.30
2018-07-20T19:13:27.332Z,7.60
2018-07-20T19:15:56.314Z,7.40
2018-07-20T19:18:25.800Z,9.47
2018-07-20T19:20:54.747Z,7.37
2018-07-20T19:23:23.361Z,7.93
2018-07-20T19:25:51.937Z,8.67
2018-07-20T19:28:20.474Z,8.00
2018-07-20T19:30:49.035Z,8.10
2018-07-20T19:33:17.678Z,7.23
2018-07-20T19:35:46.448Z,7.20
2018-07-20T19:38:15.192Z,6.47
2018-07-20T19:40:43.779Z,7.50
2018-07-20T19:43:12.456Z,8.10
2018-07-20T19:45:41.461Z,6.87
2018-07-20T19:48:10.789Z,8.13
2018-07-20T19:50:39.816Z,7.27
2018-07-20T19:53:08.993Z,6.93
2018-07-20T19:55:38.461Z,7.97
2018-07-20T19:58:07.815Z,7.73
2018-07-20T20:00:36.598Z,9.00
2018-07-20T20:03:06.233Z,8.93
2018-07-20T20:05:34.865Z,8.17
2018-07-20T20:08:03.598Z,6.90
2018-07-20T20:10:32.445Z,6.77
2018-07-20T20:13:01.187Z,6.43
2018-07-20T20:15:30.050Z,6.50
2018-07-20T20:17:58.853Z,6.87
2018-07-20T20:20:27.541Z,7.20
2018-07-20T20:22:56.127Z,6.60
2018-07-20T20:25:24.693Z,6.60
2018-07-20T20:27:53.413Z,6.17
2018-07-20T20:30:22.068Z,6.53
2018-07-20T20:32:50.612Z,6.43
2018-07-20T20:35:19.271Z,6.13
2018-07-20T20:37:48.004Z,6.30
2018-07-20T20:40:16.553Z,7.23
2018-07-20T20:42:45.116Z,8.03
2018-07-20T20:45:13.765Z,10.97
2018-07-20T20:47:42.349Z,7.17
2018-07-20T20:50:10.922Z,7.97
2018-07-20T20:52:39.505Z,8.03
2018-07-20T20:55:08.265Z,7.60
2018-07-20T20:57:36.959Z,7.50
2018-07-20T21:00:06.255Z,7.80
2018-07-20T21:02:34.911Z,7.97
2018-07-20T21:05:03.738Z,6.50
2018-07-20T21:07:32.315Z,7.60
2018-07-20T21:10:00.938Z,7.60
2018-07-20T21:12:29.528Z,7.90
2018-07-20T21:14:58.144Z,7.07
2018-07-20T21:17:26.729Z,7.93
2018-07-20T21:19:55.361Z,6.67
2018-07-20T21:22:23.884Z,6.50
2018-07-20T21:24:52.468Z,7.93
2018-07-20T21:27:21.039Z,6.40
2018-07-20T21:29:49.632Z,6.57
2018-07-20T21:32:18.249Z,6.50
2018-07-20T21:34:46.861Z,7.43
2018-07-20T21:37:15.373Z,7.23
2018-07-20T21:39:44.027Z,6.80
2018-07-20T21:42:12.544Z,7.17
2018-07-20T21:44:41.153Z,6.97
2018-07-20T21:47:09.714Z,7.13
2018-07-20T21:49:38.334Z,6.73
2018-07-20T21:52:06.827Z,6.50
2018-07-20T21:54:35.343Z,7.37
2018-07-20T21:57:03.867Z,6.67
2018-07-20T21:59:32.585Z,6.67
2018-07-20T22:02:01.222Z,6.00
2018-07-20T22:04:29.803Z,7.13
2018-07-20T22:06:58.348Z,6.70
2018-07-20T22:09:26.864Z,6.77
2018-07-20T22:11:55.358Z,6.70
2018-07-20T22:14:23.842Z,7.13
2018-07-20T22:16:52.374Z,6.83
2018-07-20T22:19:20.888Z,6.50
2018-07-20T22:21:49.419Z,7.30
2018-07-20T22:24:18.096Z,7.07
2018-07-20T22:26:46.654Z,7.47
2018-07-20T22:29:15.190Z,7.10
2018-07-20T22:31:43.736Z,7.13
2018-07-20T22:34:12.315Z,7.33
2018-07-20T22:36:40.952Z,7.17
2018-07-20T22:39:11.388Z,7.13
2018-07-20T22:41:39.932Z,7.03
2018-07-20T22:44:08.414Z,6.37
2018-07-20T22:46:36.980Z,6.50
2018-07-20T22:49:05.631Z,7.10
2018-07-20T22:51:34.283Z,7.20
2018-07-20T22:54:02.894Z,6.90
2018-07-20T22:56:31.527Z,6.83
2018-07-20T22:59:00.137Z,6.17
2018-07-20T23:01:28.742Z,7.30
2018-07-20T23:03:57.291Z,6.93
2018-07-20T23:06:25.900Z,7.07
2018-07-20T23:08:54.403Z,7.00
2018-07-20T23:11:22.996Z,7.37
2018-07-20T23:13:51.550Z,6.93
2018-07-20T23:16:20.146Z,7.13
2018-07-20T23:18:48.672Z,6.93
2018-07-20T23:21:17.216Z,6.33
2018-07-20T23:23:45.890Z,7.37
2018-07-20T23:26:14.531Z,7.50
2018-07-20T23:28:43.051Z,6.80
2018-07-20T23:31:11.640Z,7.40
2018-07-20T23:33:40.203Z,7.30
2018-07-20T23:36:08.828Z,7.77
2018-07-20T23:38:37.448Z,7.30
2018-07-20T23:41:06.203Z,7.77
2018-07-20T23:43:34.719Z,7.10
2018-07-20T23:46:03.316Z,7.83
2018-07-20T23:48:31.875Z,7.83
2018-07-20T23:51:00.537Z,7.10
2018-07-20T23:53:29.104Z,6.97
2018-07-20T23:55:57.929Z,7.70
2018-07-20T23:58:26.620Z,7.33
